aviador You're here:

KGLS Decoded Metar

GALVESTON in TX, USA
Report Time2017-11-23 19:52:00
UTC Time2017-11-23 20:24:35
Flight Rules vfr VFR
Wind010° at 08 kt
W.Decomp.*RWY 36: 7.9 kt HW 1.1 kt RCW
RWY 32: 5.4 kt HW 5.9 kt RCW
W.Rank010° ranks 14
Current wind is below 010° avg. (10.8)
Visibility9999 m
Phenomena:N/A
Clouds:N/A
Expected CloudBase > 5,600 ft AGL from Temp-Dew spread
CeilingNone
Temp17°C (ISA +2)
Dew Point03°C (39% RH)
AAT12.6°C
QNH1020 hPa
Density Alt131 ft
Elevation20 ft
Report Wrong Elevation
Raw Report
KGLS 231952Z 01008KT 10SM CLR 17/03 A3012 RMK AO2 SLP198
T01670028=

Extra information for KGLS:More info

Metar Taf Metar & Taf Last 4 Metars F.Rules Stats Wind Profile Meteogram Temp Stats Airport Information Weather charts Add Link Nearby VenuesMetar ALERT Operation Metar Decoded Social comments

AIRNAV info for KGLS